CHAMPIONNAT DE FRANCE LD Peyrelevade - Chamboux (19) - K

Date : 16/07/2011

Place Nom Licence Catégorie Club Temps CN à J-60 Points Différence Nouveau CN
1 POIROT Delphine 15979 D16 8809LO 0:29:46 5808 5348 -460 5872
2 HUMMEL-AZAIS Margaux 18432 D16 7403RA 0:31:48 4936 5006 +70 5344
3 CLOUARD Lucile 8551 D16 7807IF 0:32:34 5238 4888 -350 5294
4 DENAIX Lou 7711 D16 7403RA 0:33:41 4798 4726 -72 5812
5 BEYLS Nicolas 18100 H16 0615AZ 0:34:33 4111 4607 +496 4802
6 BODY Mathilde 10184 D16 7305RA 0:35:08 4765 4531 -234 4954
7 HABERKORN Chloé 10396 D16 2105BO 0:35:50 5165 4442 -723 5340
8 BOULESTREAU Zélie 11309 D16 2904BR 0:36:13 6029 4395 -1634 6022
9 GUSTAFSSON Rasmus 17864 H16 0615AZ 0:36:43 3105 4335 +1230 4540
10 PETER-JAN Lucile 19276 D16 3705CE 0:36:48 4024 4326 +302 4501
11 MADEC-GUILLOT Théo 20127 H16 2105BO 0:36:57 3245 4308 +1063 4091
12 AMET Marion 14575 D16 8809LO 0:37:05 4285 4292 +7 4645
13 VASQUEZ Dorian 16872 H16 4012AQ 0:37:24 4011 4256 +245 4195
14 MALAK Nathan 22433 H16 5907NO 0:37:31 3595 4243 +648 4130
15 LE BIHAN Jonathan 20298 H16 6307AU 0:38:54 3430 4092 +662 3938
16 LEPERQUE Ophelie 20200 D16 6208NO 0:39:22 4207 4044 -163 4519
17 DEVRIEUX Naïs 7672 D16 4203RA 0:39:44 4641 4006 -635 5572
18 GENISSEL Thibault 24972 H16 4203RA 0:39:48 3999 3573
19 MEYER Paul 22189 H16 7404RA 0:40:06 2800 3970 +1170 3329
20 BISSIERE Camille 19486 D16 4709AQ 0:40:37 3645 3919 +274 3914
21 ROULLEAUX Julie 11559 D16 9105IF 0:41:21 4385 3850 -535 5292
22 LOPEZ Etienne 19767 H16 4201RA 0:42:04 3905 3784 -121 3958
23 LALOUX Clément 22447 H16 5907NO 0:42:47 3807 3721 -86 4092
24 MAISONNEUVE Valentine 16357 D16 4203RA 0:42:51 4406 3715 -691 4358
25 LUCAS Amaury 17839 H16 7716IF 0:43:10 2956 3688 +732 3829
26 BONDIVENNE Perrine 8914 D16 6408AQ 0:43:31 4077 3658 -419 4214
27 SAVART Titouan 17715 H16 8809LO 0:43:35 3283 3652 +369 3518
28 PELLETIER Antoine 16529 H16 2105BO 0:44:39 3552 3565 +13 3840
29 GIRARD Lucille 19689 D16 3705CE 0:44:40 4109 3564 -545 4468
30 RIVOLLIER Isaline 22451 D16 4201RA 0:45:14 3154 3519 +365 3575
31 KAUFFMANN Joseph 20861 H16 6804AL 0:45:36 3341 3491 +150 3781
32 GUILMAIN Melanie 20572 D16 6208NO 0:46:08 3939 3450 -489 4645
33 BROUILLET Colas 19876 H16 1705PC 0:46:35 3417 3212
34 DENNY Jonathan 13143 H16 6709AL 0:46:50 3397 3399 +2 3507
35 CLAVEL Matéo 22804 H16 5907NO 0:47:14 3472 3370 -102 4225
36 DOUSSET Valentin 20732 H16 4709AQ 0:47:40 3633 3339 -294 3753
37 APOSTOL Victor 24113 H16 4201RA 0:50:40 3142 2521
38 LUTHRINGER Coline 10091 D16 8809LO 0:50:43 3560 3139 -421 4079
39 SIX Pauline 20215 D18 5906NO 0:51:08 3338 3113 -225 3413
40 CLERTON Anthony 24859 H16 1705PC 0:51:09 2566 3112 +546 3018
41 MAIRE Candice 20170 D16 8807LO 0:51:29 3021 3092 +71 3284
42 LE GLAND Nathan 22187 H16 7404RA 0:51:34 3825 3087 -738 4395
43 HABAUZIT Quentin 23281 H16 2606RA 0:52:24 2894 3038 +144 3176
44 CHARDOT Marion 22315 D16 7807IF 0:52:28 3526 3034 -492 3856
45 FALGA Beatrice 12403 D16 6911RA 0:54:03 2348 2945 +597 3366
46 DEFIX Anne-Claire 21435 D18 4203RA 0:55:51 3751 2850 -901 4329
47 VERDIN Alix 15276 D16 7109BO 0:58:55 3734 2702 -1032 3905
48 GUSTAFSSON Kristoffer 17862 H16 0615AZ 0:59:38 2088 2669 +581 3580
49 BORNARD Julie 9402 D16 7305RA 1:00:19 3313 2639 -674 3334
50 SIX Thibaut 21224 H16 5906NO 1:00:50 2677 2617 -60 2883
51 BONORA Marine 11542 D16 6906RA 1:04:29 3343 2469 -874 3480
52 STUCKELBERGER Mathilde 15961 D18 1307PR 1:08:23 0 2328 2635
53 VANOVERBERGHE Camille 21323 D16 6208NO 1:08:38 4717 2319 -2398 4816
54 MAZARS GIRARDET Emeline 22972 D18 6307AU 1:26:18 2431 1844 -587 2674
55 PERISSAT Fanette 23192 D18 7808IF 1:30:02 1069 1768 +699 1526